createdAt,value
2018-03-22T00:00:18.324Z,33.30
2018-03-22T00:01:18.326Z,33.50
2018-03-22T00:02:18.376Z,34.80
2018-03-22T00:03:18.350Z,32.20
2018-03-22T00:04:18.355Z,33.60
2018-03-22T00:05:18.372Z,34.50
2018-03-22T00:06:18.376Z,34.10
2018-03-22T00:07:18.427Z,33.30
2018-03-22T00:08:18.432Z,33.50
2018-03-22T00:09:18.424Z,32.00
2018-03-22T00:10:18.424Z,32.70
2018-03-22T00:11:18.417Z,31.40
2018-03-22T00:12:18.432Z,33.10
2018-03-22T00:13:18.478Z,30.00
2018-03-22T00:14:18.454Z,31.80
2018-03-22T00:15:18.463Z,30.30
2018-03-22T00:16:18.459Z,30.30
2018-03-22T00:17:18.475Z,30.80
2018-03-22T00:18:18.489Z,31.10
2018-03-22T00:19:18.511Z,29.70
2018-03-22T00:20:18.503Z,29.90
2018-03-22T00:21:18.524Z,30.10
2018-03-22T00:22:18.521Z,30.70
2018-03-22T00:23:18.568Z,29.90
2018-03-22T00:24:18.545Z,30.60
2018-03-22T00:25:18.549Z,29.30
2018-03-22T00:26:18.562Z,28.80
2018-03-22T00:27:18.564Z,28.70
2018-03-22T00:28:18.576Z,27.70
2018-03-22T00:29:18.605Z,27.30
2018-03-22T00:30:18.596Z,29.40
2018-03-22T00:31:18.614Z,26.90
2018-03-22T00:32:18.610Z,28.70
2018-03-22T00:33:18.617Z,31.20
2018-03-22T00:34:18.634Z,30.00
2018-03-22T00:35:18.670Z,31.80
2018-03-22T00:36:18.638Z,31.80
2018-03-22T00:37:18.670Z,30.80
2018-03-22T00:38:18.665Z,30.80
2018-03-22T00:39:18.672Z,30.80
2018-03-22T00:40:18.693Z,29.70
2018-03-22T00:41:18.686Z,29.40
2018-03-22T00:42:18.695Z,29.70
2018-03-22T00:43:18.704Z,28.60
2018-03-22T00:44:18.717Z,29.40
2018-03-22T00:45:18.739Z,28.80
2018-03-22T00:46:18.725Z,28.50
2018-03-22T00:47:18.735Z,27.50
2018-03-22T00:48:18.746Z,26.90
2018-03-22T00:49:18.754Z,26.40
2018-03-22T00:50:18.797Z,27.90
2018-03-22T00:51:18.767Z,27.20
2018-03-22T00:52:18.774Z,26.60
2018-03-22T00:53:18.790Z,27.00
2018-03-22T00:54:18.797Z,28.50
2018-03-22T00:55:18.810Z,30.00
2018-03-22T00:56:18.843Z,30.30
2018-03-22T00:57:18.845Z,30.70
2018-03-22T00:58:18.851Z,30.30
2018-03-22T00:59:18.845Z,29.90
2018-03-22T01:00:18.892Z,30.70
2018-03-22T01:01:18.856Z,30.30
2018-03-22T01:02:18.864Z,29.30
2018-03-22T01:03:18.877Z,27.40
2018-03-22T01:04:18.890Z,28.10
2018-03-22T01:05:18.912Z,27.10
2018-03-22T01:06:18.900Z,29.00
2018-03-22T01:07:18.911Z,28.40
2018-03-22T01:08:18.943Z,27.80
2018-03-22T01:09:18.935Z,27.60
2018-03-22T01:10:18.942Z,28.50
2018-03-22T01:11:18.944Z,28.10
2018-03-22T01:12:18.958Z,27.10
2018-03-22T01:13:18.982Z,26.90
2018-03-22T01:14:18.980Z,25.00
2018-03-22T01:15:19.000Z,24.20
2018-03-22T01:16:18.997Z,23.50
2018-03-22T01:17:18.999Z,23.10
2018-03-22T01:18:19.008Z,22.60
2018-03-22T01:19:19.018Z,20.90
2018-03-22T01:20:19.047Z,22.00
2018-03-22T01:21:19.033Z,20.90
2018-03-22T01:22:19.047Z,21.20
2018-03-22T01:23:19.049Z,21.40
2018-03-22T01:24:19.067Z,20.60
2018-03-22T01:25:19.086Z,20.60
2018-03-22T01:26:19.080Z,20.50
2018-03-22T01:27:19.106Z,20.80
2018-03-22T01:28:19.101Z,20.90
2018-03-22T01:29:19.108Z,20.30
2018-03-22T01:30:19.116Z,22.00
2018-03-22T01:31:19.781Z,21.00
2018-03-22T01:32:19.140Z,21.20
2018-03-22T01:33:19.157Z,21.60
2018-03-22T01:34:19.150Z,21.20
2018-03-22T01:35:19.182Z,21.30
2018-03-22T01:36:19.179Z,21.30
2018-03-22T01:37:19.176Z,21.50
2018-03-22T01:38:19.184Z,22.30
2018-03-22T01:39:19.195Z,22.10
2018-03-22T01:40:19.240Z,23.00
2018-03-22T01:41:19.220Z,23.50
2018-03-22T01:42:19.224Z,22.30
2018-03-22T01:43:19.234Z,23.90
2018-03-22T01:44:19.237Z,23.40
2018-03-22T01:45:19.270Z,23.10
2018-03-22T01:46:19.258Z,22.40
2018-03-22T01:47:19.268Z,22.30
2018-03-22T01:48:20.380Z,21.10
2018-03-22T01:49:19.306Z,21.50
2018-03-22T01:50:19.345Z,21.50
2018-03-22T01:51:19.320Z,20.80
2018-03-22T01:52:19.335Z,20.30
2018-03-22T01:53:19.342Z,21.00
2018-03-22T01:54:19.349Z,20.90
2018-03-22T01:55:19.371Z,21.70
2018-03-22T01:56:19.390Z,21.70
2018-03-22T01:57:19.378Z,20.80
2018-03-22T01:58:19.381Z,21.90
2018-03-22T01:59:19.387Z,20.90
2018-03-22T02:00:19.593Z,21.80
2018-03-22T02:01:19.437Z,21.60
2018-03-22T02:02:19.423Z,22.20
2018-03-22T02:03:19.431Z,21.90
2018-03-22T02:04:19.508Z,23.00
2018-03-22T02:05:19.443Z,24.50
2018-03-22T02:06:19.457Z,23.20
2018-03-22T02:07:19.459Z,23.20
2018-03-22T02:08:19.478Z,22.60
2018-03-22T02:09:19.502Z,22.50
2018-03-22T02:10:19.483Z,22.30
2018-03-22T02:11:19.495Z,21.90
2018-03-22T02:12:19.512Z,22.60
2018-03-22T02:13:19.516Z,22.80
2018-03-22T02:14:19.538Z,21.30
2018-03-22T02:15:19.528Z,21.60
2018-03-22T02:16:19.535Z,21.40
2018-03-22T02:17:19.541Z,22.10
2018-03-22T02:18:19.619Z,21.10
2018-03-22T02:19:19.570Z,21.60
2018-03-22T02:20:19.586Z,22.80
2018-03-22T02:21:19.584Z,23.10
2018-03-22T02:22:19.605Z,21.90
2018-03-22T02:23:19.626Z,21.50
2018-03-22T02:24:19.607Z,21.20
2018-03-22T02:25:19.612Z,21.70
2018-03-22T02:26:19.660Z,21.40
2018-03-22T02:27:19.655Z,21.80
2018-03-22T02:28:19.685Z,21.60
2018-03-22T02:29:19.664Z,21.50
2018-03-22T02:30:19.662Z,21.00
2018-03-22T02:31:19.671Z,21.60
2018-03-22T02:32:19.716Z,20.40
2018-03-22T02:33:19.688Z,20.70
2018-03-22T02:34:19.707Z,21.10
2018-03-22T02:35:19.716Z,20.70
2018-03-22T02:36:19.775Z,20.10
2018-03-22T02:37:19.730Z,20.60
2018-03-22T02:38:19.732Z,20.50
2018-03-22T02:39:19.769Z,19.90
2018-03-22T02:40:19.775Z,19.80
2018-03-22T02:41:19.794Z,20.70
2018-03-22T02:42:19.797Z,21.50
2018-03-22T02:43:19.831Z,20.50
2018-03-22T02:44:19.811Z,20.80
2018-03-22T02:45:19.810Z,21.70
2018-03-22T02:46:19.819Z,21.50
2018-03-22T02:47:19.840Z,21.30
2018-03-22T02:48:19.848Z,21.70
2018-03-22T02:49:19.871Z,21.80
2018-03-22T02:50:19.887Z,21.50
2018-03-22T02:51:19.861Z,21.30
2018-03-22T02:52:19.873Z,20.10
2018-03-22T02:53:19.895Z,20.70
2018-03-22T02:54:19.887Z,20.20
2018-03-22T02:55:19.939Z,20.00
2018-03-22T02:56:19.906Z,20.70
2018-03-22T02:57:19.912Z,19.70
2018-03-22T02:58:19.944Z,19.80
2018-03-22T02:59:19.921Z,19.90
2018-03-22T03:00:19.935Z,19.50
2018-03-22T03:01:19.976Z,18.50
2018-03-22T03:02:19.980Z,19.30
2018-03-22T03:03:19.964Z,19.00
2018-03-22T03:04:19.969Z,19.20
2018-03-22T03:05:19.976Z,18.80
2018-03-22T03:06:19.995Z,19.40
2018-03-22T03:07:20.028Z,19.50
2018-03-22T03:08:20.005Z,20.10
2018-03-22T03:09:20.018Z,19.90
2018-03-22T03:10:20.020Z,20.70
2018-03-22T03:11:20.031Z,20.30
2018-03-22T03:12:20.041Z,20.40
2018-03-22T03:13:20.088Z,20.70
2018-03-22T03:14:20.062Z,20.70
2018-03-22T03:15:20.072Z,19.90
2018-03-22T03:16:20.079Z,20.80
2018-03-22T03:17:20.084Z,20.60
2018-03-22T03:18:20.133Z,19.80
2018-03-22T03:19:20.109Z,20.00
2018-03-22T03:20:20.111Z,20.10
2018-03-22T03:21:20.124Z,20.10
2018-03-22T03:22:20.134Z,20.20
2018-03-22T03:23:20.143Z,19.90
2018-03-22T03:24:20.190Z,20.50
2018-03-22T03:25:20.159Z,19.70
2018-03-22T03:26:20.196Z,19.90
2018-03-22T03:27:20.184Z,20.10
2018-03-22T03:28:20.183Z,19.30
2018-03-22T03:29:20.231Z,19.70
2018-03-22T03:30:20.282Z,18.90
2018-03-22T03:31:20.213Z,20.70
2018-03-22T03:32:20.220Z,19.40
2018-03-22T03:33:20.235Z,20.90
2018-03-22T03:34:20.242Z,20.20
2018-03-22T03:35:20.287Z,19.90
2018-03-22T03:36:20.259Z,19.90
2018-03-22T03:37:20.268Z,19.00
2018-03-22T03:38:20.297Z,19.70
2018-03-22T03:39:20.280Z,19.60
2018-03-22T03:40:20.310Z,19.50
2018-03-22T03:41:20.306Z,19.60
2018-03-22T03:42:20.317Z,19.80
2018-03-22T03:43:20.332Z,20.30
2018-03-22T03:44:20.368Z,20.40
2018-03-22T03:45:20.345Z,20.30
2018-03-22T03:46:20.351Z,19.60
2018-03-22T03:47:20.361Z,18.90
2018-03-22T03:48:20.396Z,19.00
2018-03-22T03:49:20.404Z,18.40
2018-03-22T03:50:20.384Z,18.30
2018-03-22T03:51:20.389Z,18.10
2018-03-22T03:52:20.402Z,17.80
2018-03-22T03:53:20.410Z,18.40
2018-03-22T03:54:20.424Z,18.30
2018-03-22T03:55:20.467Z,18.20
2018-03-22T03:56:20.440Z,18.60
2018-03-22T03:57:20.448Z,19.20
2018-03-22T03:58:20.456Z,18.60
2018-03-22T03:59:20.476Z,18.40
2018-03-22T04:00:20.475Z,17.70
2018-03-22T04:01:20.501Z,18.40
2018-03-22T04:02:20.570Z,18.20
2018-03-22T04:03:20.501Z,18.50
2018-03-22T04:04:20.525Z,19.00
2018-03-22T04:05:20.514Z,19.80
2018-03-22T04:06:20.528Z,19.00
2018-03-22T04:07:20.535Z,19.00
2018-03-22T04:08:20.544Z,19.30
2018-03-22T04:09:20.598Z,18.50
2018-03-22T04:10:20.565Z,18.60
2018-03-22T04:11:20.572Z,18.30
2018-03-22T04:12:20.577Z,17.90
2018-03-22T04:13:20.590Z,18.20
2018-03-22T04:14:20.597Z,18.10
2018-03-22T04:15:20.630Z,18.10
2018-03-22T04:16:20.613Z,18.20
2018-03-22T04:17:20.625Z,18.10
2018-03-22T04:18:20.630Z,18.60
2018-03-22T04:19:20.649Z,19.30
2018-03-22T04:20:20.684Z,18.90
2018-03-22T04:21:20.663Z,18.60
2018-03-22T04:22:20.671Z,18.70
2018-03-22T04:23:20.676Z,19.30
2018-03-22T04:24:20.690Z,18.20
2018-03-22T04:25:20.716Z,18.10
2018-03-22T04:26:20.705Z,18.70
2018-03-22T04:27:20.719Z,18.20
2018-03-22T04:28:20.729Z,18.40
2018-03-22T04:29:20.757Z,17.70
2018-03-22T04:30:20.756Z,16.80
2018-03-22T04:31:20.765Z,16.70
2018-03-22T04:32:20.759Z,16.30
2018-03-22T04:33:20.762Z,16.80
2018-03-22T04:34:20.781Z,17.40
2018-03-22T04:35:20.808Z,17.70
2018-03-22T04:36:20.824Z,18.00
2018-03-22T04:37:20.799Z,17.00
2018-03-22T04:38:20.805Z,17.70
2018-03-22T04:39:20.821Z,16.80
2018-03-22T04:40:20.823Z,18.10
2018-03-22T04:41:20.834Z,18.20
2018-03-22T04:42:20.864Z,19.10
2018-03-22T04:43:20.852Z,18.10
2018-03-22T04:44:20.864Z,18.90
2018-03-22T04:45:20.867Z,18.70
2018-03-22T04:47:20.899Z,17.40
2018-03-22T04:48:20.930Z,19.10
2018-03-22T04:49:20.905Z,19.00
2018-03-22T04:50:20.925Z,19.00
2018-03-22T04:51:20.935Z,18.30
2018-03-22T04:52:20.933Z,18.20
2018-03-22T04:53:20.946Z,18.10
2018-03-22T04:54:20.968Z,18.20
2018-03-22T04:55:20.958Z,18.10
2018-03-22T04:56:20.969Z,18.10
2018-03-22T04:57:20.979Z,18.20
2018-03-22T04:58:20.998Z,17.60
2018-03-22T04:59:21.009Z,18.90
2018-03-22T05:00:21.001Z,19.40
2018-03-22T05:01:21.029Z,18.90
2018-03-22T05:02:21.019Z,18.60
2018-03-22T05:03:21.025Z,18.50
2018-03-22T05:04:21.030Z,23.90
2018-03-22T05:05:21.064Z,23.00
2018-03-22T05:06:21.069Z,19.00
2018-03-22T05:07:21.121Z,17.60
2018-03-22T05:08:21.098Z,18.80
2018-03-22T05:09:21.080Z,18.40
2018-03-22T05:10:21.098Z,18.20
2018-03-22T05:11:21.099Z,20.30
2018-03-22T05:12:21.144Z,23.60
2018-03-22T05:13:21.116Z,22.60
2018-03-22T05:14:21.121Z,29.10
2018-03-22T05:15:21.133Z,25.70
2018-03-22T05:16:21.141Z,21.10
2018-03-22T05:17:21.176Z,28.00
2018-03-22T05:18:21.209Z,77.40
2018-03-22T05:19:21.170Z,47.50
2018-03-22T05:20:21.177Z,36.30
2018-03-22T05:21:21.192Z,22.40
2018-03-22T05:22:21.201Z,19.50
2018-03-22T05:23:21.205Z,18.10
2018-03-22T05:24:21.250Z,34.90
2018-03-22T05:25:21.214Z,21.50
2018-03-22T05:26:21.238Z,22.60
2018-03-22T05:27:21.240Z,19.90
2018-03-22T05:28:21.259Z,19.90
2018-03-22T05:29:21.288Z,18.80
2018-03-22T05:30:21.288Z,18.80
2018-03-22T05:31:21.298Z,19.80
2018-03-22T05:32:21.291Z,27.60
2018-03-22T05:33:21.300Z,33.50
2018-03-22T05:34:21.321Z,41.00
2018-03-22T05:35:21.307Z,70.00
2018-03-22T05:36:21.328Z,26.90
2018-03-22T05:37:21.326Z,35.40
2018-03-22T05:38:21.333Z,30.00
2018-03-22T05:39:21.374Z,21.70
2018-03-22T05:40:21.370Z,19.00
2018-03-22T05:41:21.357Z,17.70
2018-03-22T05:42:21.378Z,17.40
2018-03-22T05:43:21.382Z,18.30
2018-03-22T05:44:21.425Z,18.40
2018-03-22T05:45:21.406Z,19.00
2018-03-22T05:46:21.407Z,19.40
2018-03-22T05:47:21.422Z,19.20
2018-03-22T05:48:21.424Z,19.30
2018-03-22T05:49:21.450Z,21.80
2018-03-22T05:50:21.441Z,25.70
2018-03-22T05:51:21.469Z,29.20
2018-03-22T05:52:21.455Z,21.50
2018-03-22T05:53:21.488Z,22.90
2018-03-22T05:54:21.478Z,20.80
2018-03-22T05:55:21.493Z,19.70
2018-03-22T05:56:21.495Z,19.90
2018-03-22T05:57:21.536Z,19.60
2018-03-22T05:58:21.512Z,18.30
2018-03-22T05:59:21.529Z,18.80
2018-03-22T06:00:21.566Z,17.20
2018-03-22T06:01:21.537Z,19.50
2018-03-22T06:02:21.570Z,20.70
2018-03-22T06:03:21.587Z,21.20
2018-03-22T06:04:21.563Z,21.00
2018-03-22T06:05:21.571Z,19.40
2018-03-22T06:06:21.584Z,18.80
2018-03-22T06:07:21.638Z,19.00
2018-03-22T06:08:21.600Z,18.40
2018-03-22T06:09:21.650Z,18.70
2018-03-22T06:10:21.624Z,18.10
2018-03-22T06:11:21.639Z,17.70
2018-03-22T06:12:21.640Z,17.20
2018-03-22T06:13:21.643Z,17.40
2018-03-22T06:14:21.671Z,18.70
2018-03-22T06:15:21.682Z,17.20
2018-03-22T06:16:21.676Z,17.00
2018-03-22T06:17:22.737Z,18.00
2018-03-22T06:18:21.728Z,18.50
2018-03-22T06:19:21.709Z,16.30
2018-03-22T06:20:21.726Z,17.40
2018-03-22T06:21:21.724Z,16.70
2018-03-22T06:22:21.748Z,15.30
2018-03-22T06:23:21.775Z,16.60
2018-03-22T06:24:28.331Z,15.90
2018-03-22T06:25:21.813Z,15.90
2018-03-22T06:26:21.789Z,14.90
2018-03-22T06:27:21.793Z,11.50
2018-03-22T06:28:21.814Z,14.90
2018-03-22T06:29:21.814Z,15.10
2018-03-22T06:30:21.815Z,15.20
2018-03-22T06:31:21.820Z,15.00
2018-03-22T06:32:21.835Z,15.00
2018-03-22T06:33:21.875Z,14.70
2018-03-22T06:34:21.853Z,15.40
2018-03-22T06:35:21.883Z,15.10
2018-03-22T06:36:21.867Z,16.40
2018-03-22T06:37:21.884Z,17.40
2018-03-22T06:38:21.898Z,17.70
2018-03-22T06:39:21.953Z,16.20
2018-03-22T06:40:22.045Z,15.80
2018-03-22T06:41:21.928Z,15.20
2018-03-22T06:42:21.938Z,14.20
2018-03-22T06:43:21.944Z,14.80
2018-03-22T06:44:21.962Z,14.60
2018-03-22T06:45:21.995Z,15.20
2018-03-22T06:46:21.972Z,14.70
2018-03-22T06:47:21.987Z,14.80
2018-03-22T06:48:22.000Z,14.70
2018-03-22T06:49:22.004Z,14.40
2018-03-22T06:50:22.054Z,14.50
2018-03-22T06:51:22.026Z,14.40
2018-03-22T06:52:22.038Z,13.30
2018-03-22T06:53:22.080Z,14.50
2018-03-22T06:54:22.058Z,13.60
2018-03-22T06:55:22.075Z,13.50
2018-03-22T06:56:22.101Z,13.50
2018-03-22T06:57:22.088Z,13.50
2018-03-22T06:58:22.116Z,15.40
2018-03-22T06:59:22.111Z,14.50
2018-03-22T07:00:22.120Z,13.90
2018-03-22T07:01:22.157Z,14.50
2018-03-22T07:02:22.147Z,13.10
2018-03-22T07:03:22.157Z,13.60
2018-03-22T07:04:22.164Z,14.10
2018-03-22T07:05:22.208Z,13.70
2018-03-22T07:06:22.183Z,13.90
2018-03-22T07:07:22.195Z,13.30
2018-03-22T07:08:22.215Z,14.10
2018-03-22T07:09:22.219Z,13.30
2018-03-22T07:10:22.259Z,15.20
2018-03-22T07:11:22.251Z,14.00
2018-03-22T07:12:22.249Z,14.30
2018-03-22T07:13:22.262Z,13.50
2018-03-22T07:14:22.274Z,13.70
2018-03-22T07:15:22.305Z,16.20
2018-03-22T07:16:22.295Z,13.70
2018-03-22T07:17:22.307Z,13.30
2018-03-22T07:18:22.312Z,13.60
2018-03-22T07:19:22.324Z,13.30
2018-03-22T07:20:22.399Z,13.80
2018-03-22T07:21:22.346Z,14.20
2018-03-22T07:22:22.355Z,13.50
2018-03-22T07:23:22.372Z,13.30
2018-03-22T07:24:22.379Z,13.30
2018-03-22T07:25:22.389Z,13.40
2018-03-22T07:26:22.442Z,13.20
2018-03-22T07:27:22.417Z,14.90
2018-03-22T07:28:22.439Z,14.30
2018-03-22T07:29:22.464Z,14.20
2018-03-22T07:30:22.459Z,16.80
2018-03-22T07:31:22.491Z,14.10
2018-03-22T07:32:22.467Z,14.40
2018-03-22T07:33:22.479Z,13.50
2018-03-22T07:34:22.488Z,15.50
2018-03-22T07:35:22.506Z,14.70
2018-03-22T07:36:22.539Z,13.90
2018-03-22T07:37:22.564Z,13.90
2018-03-22T07:38:22.560Z,13.70
2018-03-22T07:39:22.542Z,14.10
2018-03-22T07:40:22.577Z,14.20
2018-03-22T07:41:22.687Z,13.80
2018-03-22T07:42:22.619Z,14.50
2018-03-22T07:43:22.591Z,14.30
2018-03-22T07:44:22.655Z,14.70
2018-03-22T07:45:22.671Z,16.30
2018-03-22T07:46:22.677Z,14.90
2018-03-22T07:47:22.717Z,14.40
2018-03-22T07:48:22.668Z,14.80
2018-03-22T07:49:22.703Z,14.00
2018-03-22T07:50:22.665Z,13.30
2018-03-22T07:51:22.760Z,12.80
2018-03-22T07:52:23.046Z,13.10
2018-03-22T07:53:22.734Z,12.70
2018-03-22T07:54:22.800Z,15.90
2018-03-22T07:55:22.831Z,14.10
2018-03-22T07:56:22.733Z,14.20
2018-03-22T07:57:23.092Z,15.70
2018-03-22T07:58:22.773Z,15.50
2018-03-22T07:59:22.937Z,15.50
2018-03-22T08:00:22.831Z,14.80
2018-03-22T08:01:22.865Z,13.70
2018-03-22T08:02:22.806Z,14.40
2018-03-22T08:03:23.183Z,13.60
2018-03-22T08:04:22.849Z,14.10
2018-03-22T08:05:22.837Z,13.30
2018-03-22T08:06:22.968Z,13.30
2018-03-22T08:07:22.855Z,13.10
2018-03-22T08:08:22.892Z,13.30
2018-03-22T08:09:22.915Z,16.30
2018-03-22T08:10:22.921Z,14.50
2018-03-22T08:11:22.899Z,13.00
2018-03-22T08:12:22.926Z,12.30
2018-03-22T08:13:22.970Z,13.70
2018-03-22T08:14:22.992Z,12.70
2018-03-22T08:15:22.942Z,13.50
2018-03-22T08:16:22.964Z,14.20
2018-03-22T08:17:22.975Z,13.90
2018-03-22T08:18:23.016Z,13.30
2018-03-22T08:19:23.016Z,14.00
2018-03-22T08:20:23.007Z,14.40
2018-03-22T08:21:23.103Z,14.70
2018-03-22T08:22:23.023Z,14.30
2018-03-22T08:23:23.030Z,14.90
2018-03-22T08:24:23.103Z,16.10
2018-03-22T08:25:23.059Z,14.10
2018-03-22T08:26:23.084Z,13.60
2018-03-22T08:27:23.178Z,14.10
2018-03-22T08:28:23.092Z,13.20
2018-03-22T08:29:23.130Z,13.70
2018-03-22T08:30:23.177Z,13.60
2018-03-22T08:31:23.135Z,13.20
2018-03-22T08:32:23.169Z,14.00
2018-03-22T08:33:23.176Z,13.30
2018-03-22T08:34:23.192Z,13.70
2018-03-22T08:35:23.168Z,11.50
2018-03-22T08:36:23.238Z,7.80
2018-03-22T08:37:23.247Z,13.50
2018-03-22T08:38:23.223Z,13.50
2018-03-22T08:39:23.313Z,14.40
2018-03-22T08:40:23.230Z,14.20
2018-03-22T08:41:23.245Z,14.00
2018-03-22T08:42:23.248Z,14.00
2018-03-22T08:43:23.283Z,13.60
2018-03-22T08:44:23.395Z,13.50
2018-03-22T08:45:23.292Z,13.60
2018-03-22T08:46:23.350Z,13.20
2018-03-22T08:47:23.302Z,14.00
2018-03-22T08:48:23.397Z,12.20
2018-03-22T08:49:23.345Z,8.00
2018-03-22T08:50:23.430Z,13.40
2018-03-22T08:51:23.365Z,12.80
2018-03-22T08:52:23.429Z,13.40
2018-03-22T08:53:23.432Z,12.80
2018-03-22T08:54:23.548Z,8.90
2018-03-22T08:55:24.056Z,9.50
2018-03-22T08:56:23.412Z,10.60
2018-03-22T08:57:23.453Z,8.10
2018-03-22T08:58:23.488Z,11.40
2018-03-22T08:59:23.472Z,8.70
2018-03-22T09:00:23.517Z,11.70
2018-03-22T09:01:23.462Z,12.90
2018-03-22T09:02:23.487Z,13.00
2018-03-22T09:03:23.499Z,12.70
2018-03-22T09:04:23.505Z,13.00
2018-03-22T09:05:23.595Z,12.60
2018-03-22T09:06:23.567Z,13.10
2018-03-22T09:07:23.662Z,11.80
2018-03-22T09:08:23.599Z,13.50
2018-03-22T09:09:23.566Z,12.90
2018-03-22T09:10:23.599Z,12.70
2018-03-22T09:11:23.612Z,13.70
2018-03-22T09:12:23.596Z,13.60
2018-03-22T09:13:23.665Z,13.90
2018-03-22T09:14:23.686Z,13.10
2018-03-22T09:15:23.633Z,12.80
2018-03-22T09:16:23.646Z,13.00
2018-03-22T09:17:23.659Z,13.70
2018-03-22T09:18:23.672Z,11.70
2018-03-22T09:19:23.706Z,12.50
2018-03-22T09:20:23.709Z,11.90
2018-03-22T09:21:23.706Z,11.70
2018-03-22T09:22:23.726Z,7.90
2018-03-22T09:23:23.726Z,8.70
2018-03-22T09:24:23.736Z,8.90
2018-03-22T09:25:23.847Z,10.50
2018-03-22T09:26:23.849Z,9.60
2018-03-22T09:27:23.797Z,10.00
2018-03-22T09:28:23.784Z,13.00
2018-03-22T09:29:23.799Z,12.40
2018-03-22T09:30:23.820Z,11.50
2018-03-22T09:31:23.840Z,12.60
2018-03-22T09:32:23.908Z,13.30
2018-03-22T09:33:23.892Z,13.60
2018-03-22T09:34:23.909Z,13.80
2018-03-22T09:35:23.913Z,16.20
2018-03-22T09:36:23.917Z,13.40
2018-03-22T09:37:23.964Z,14.30
2018-03-22T09:38:23.933Z,12.80
2018-03-22T09:39:23.943Z,13.80
2018-03-22T09:40:23.956Z,13.70
2018-03-22T09:41:23.969Z,13.80
2018-03-22T09:42:24.003Z,11.40
2018-03-22T09:43:24.167Z,11.00
2018-03-22T09:44:24.044Z,11.50
2018-03-22T09:45:24.019Z,12.40
2018-03-22T09:46:24.019Z,11.00
2018-03-22T09:47:24.049Z,12.00
2018-03-22T09:48:24.086Z,11.80
2018-03-22T09:49:24.081Z,12.10
2018-03-22T09:50:24.066Z,13.10
2018-03-22T09:51:24.094Z,13.40
2018-03-22T09:52:24.098Z,12.30
2018-03-22T09:53:24.121Z,12.20
2018-03-22T09:54:24.228Z,11.80
2018-03-22T09:55:24.127Z,13.10
2018-03-22T09:56:24.159Z,17.10
2018-03-22T09:57:24.185Z,12.90
2018-03-22T09:58:24.151Z,11.40
2018-03-22T09:59:24.164Z,12.40
2018-03-22T10:00:24.206Z,9.40
2018-03-22T10:01:24.188Z,12.80
2018-03-22T10:02:24.206Z,12.30
2018-03-22T10:03:24.213Z,10.20
2018-03-22T10:04:24.224Z,12.70
2018-03-22T10:05:24.240Z,10.50
2018-03-22T10:06:24.286Z,10.50
2018-03-22T10:07:24.264Z,12.50
2018-03-22T10:08:24.273Z,11.70
2018-03-22T10:09:24.295Z,10.60
2018-03-22T10:10:24.302Z,10.90
2018-03-22T10:11:24.319Z,8.60
2018-03-22T10:12:24.349Z,10.80
2018-03-22T10:13:24.334Z,10.60
2018-03-22T10:14:24.349Z,11.40
2018-03-22T10:15:24.369Z,11.20
2018-03-22T10:16:24.422Z,10.10
2018-03-22T10:17:24.406Z,10.80
2018-03-22T10:18:24.408Z,10.90
2018-03-22T10:19:24.422Z,10.50
2018-03-22T10:20:24.427Z,11.30
2018-03-22T10:21:24.462Z,12.20
2018-03-22T10:22:24.462Z,11.20
2018-03-22T10:23:24.467Z,10.50
2018-03-22T10:24:24.480Z,10.90
2018-03-22T10:25:24.490Z,11.60
2018-03-22T10:26:24.547Z,10.60
2018-03-22T10:27:24.525Z,8.20
2018-03-22T10:28:24.540Z,8.50
2018-03-22T10:29:24.546Z,7.60
2018-03-22T10:30:24.561Z,10.80
2018-03-22T10:31:24.611Z,10.80
2018-03-22T10:32:24.609Z,11.40
2018-03-22T10:33:24.604Z,12.30
2018-03-22T10:34:24.615Z,11.30
2018-03-22T10:35:24.634Z,11.70
2018-03-22T10:36:24.640Z,11.60
2018-03-22T10:37:24.657Z,11.60
2018-03-22T10:38:24.693Z,11.40
2018-03-22T10:39:24.726Z,13.40
2018-03-22T10:40:24.735Z,13.00
2018-03-22T10:41:24.715Z,11.40
2018-03-22T10:42:24.724Z,11.00
2018-03-22T10:43:24.786Z,10.50
2018-03-22T10:44:24.759Z,10.30
2018-03-22T10:45:24.802Z,10.20
2018-03-22T10:46:24.774Z,9.20
2018-03-22T10:47:24.781Z,9.70
2018-03-22T10:48:24.898Z,11.10
2018-03-22T10:49:24.807Z,11.20
2018-03-22T10:50:24.824Z,11.10
2018-03-22T10:51:24.843Z,10.40
2018-03-22T10:52:24.850Z,10.10
2018-03-22T10:53:24.907Z,10.40
2018-03-22T10:54:24.891Z,8.60
2018-03-22T10:55:24.899Z,11.50
2018-03-22T10:56:24.932Z,11.20
2018-03-22T10:57:24.918Z,11.10
2018-03-22T10:58:24.962Z,11.10
2018-03-22T10:59:24.942Z,11.20
2018-03-22T11:00:24.950Z,10.70
2018-03-22T11:01:24.970Z,11.10
2018-03-22T11:02:24.994Z,10.60
2018-03-22T11:03:25.029Z,10.40
2018-03-22T11:04:25.003Z,13.80
2018-03-22T11:05:25.026Z,10.90
2018-03-22T11:06:25.073Z,11.40
2018-03-22T11:07:25.052Z,10.80
2018-03-22T11:08:25.055Z,11.60
2018-03-22T11:09:25.091Z,10.50
2018-03-22T11:10:25.092Z,10.50
2018-03-22T11:11:25.086Z,10.30
2018-03-22T11:12:25.094Z,10.90
2018-03-22T11:13:25.145Z,10.60
2018-03-22T11:14:25.124Z,10.70
2018-03-22T11:15:25.131Z,10.40
2018-03-22T11:16:25.144Z,10.80
2018-03-22T11:17:25.153Z,11.20
2018-03-22T11:18:25.175Z,11.30
2018-03-22T11:19:25.214Z,11.30
2018-03-22T11:20:25.190Z,10.80
2018-03-22T11:21:25.201Z,11.80
2018-03-22T11:22:25.219Z,12.00
2018-03-22T11:23:25.229Z,13.20
2018-03-22T11:24:25.254Z,11.20
2018-03-22T11:25:25.247Z,11.10
2018-03-22T11:26:25.267Z,11.00
2018-03-22T11:27:26.172Z,11.60
2018-03-22T11:28:25.334Z,11.30
2018-03-22T11:29:25.300Z,11.30
2018-03-22T11:30:25.313Z,10.60
2018-03-22T11:31:25.322Z,10.60
2018-03-22T11:32:25.344Z,9.40
2018-03-22T11:33:25.370Z,17.10
2018-03-22T11:34:25.360Z,13.40
2018-03-22T11:35:25.375Z,11.00
2018-03-22T11:36:25.386Z,11.10
2018-03-22T11:37:25.419Z,11.00
2018-03-22T11:38:25.428Z,11.40
2018-03-22T11:39:25.438Z,11.70
2018-03-22T11:40:25.448Z,11.30
2018-03-22T11:41:25.444Z,11.70
2018-03-22T11:42:25.453Z,11.10
2018-03-22T11:43:25.490Z,11.00
2018-03-22T11:44:25.475Z,11.50
2018-03-22T11:45:25.497Z,11.00
2018-03-22T11:46:25.511Z,11.50
2018-03-22T11:47:25.513Z,11.70
2018-03-22T11:48:25.567Z,12.20
2018-03-22T11:49:25.536Z,10.50
2018-03-22T11:50:25.547Z,11.70
2018-03-22T11:51:25.560Z,11.70
2018-03-22T11:52:25.572Z,11.30
2018-03-22T11:53:25.629Z,11.30
2018-03-22T11:54:25.595Z,11.70
2018-03-22T11:55:25.634Z,10.10
2018-03-22T11:56:25.654Z,10.90
2018-03-22T11:57:25.631Z,11.70
2018-03-22T11:58:25.704Z,11.30
2018-03-22T11:59:25.681Z,10.90
2018-03-22T12:00:25.674Z,11.00
2018-03-22T12:01:25.687Z,11.60
2018-03-22T12:02:25.692Z,11.10
2018-03-22T12:03:25.742Z,11.30
2018-03-22T12:04:25.755Z,12.00
2018-03-22T12:05:25.724Z,9.90
2018-03-22T12:06:25.739Z,11.90
2018-03-22T12:07:25.761Z,10.20
2018-03-22T12:08:25.772Z,10.20
2018-03-22T12:09:25.821Z,11.70
2018-03-22T12:10:25.787Z,12.10
2018-03-22T12:11:25.814Z,11.60
2018-03-22T12:12:25.831Z,12.30
2018-03-22T12:13:25.824Z,11.40
2018-03-22T12:14:25.859Z,12.00
2018-03-22T12:15:25.892Z,10.10
2018-03-22T12:16:25.859Z,9.50
2018-03-22T12:17:25.871Z,11.70
2018-03-22T12:18:25.887Z,10.10
2018-03-22T12:19:25.902Z,11.40
2018-03-22T12:20:25.919Z,10.20
2018-03-22T12:21:25.957Z,9.20
2018-03-22T12:22:25.936Z,9.40
2018-03-22T12:23:25.951Z,11.40
2018-03-22T12:24:25.980Z,10.70
2018-03-22T12:25:26.012Z,11.30
2018-03-22T12:26:26.061Z,9.30
2018-03-22T12:27:26.081Z,10.40
2018-03-22T12:28:26.017Z,8.80
2018-03-22T12:29:26.024Z,8.70
2018-03-22T12:30:26.082Z,9.20
2018-03-22T12:31:26.068Z,10.60
2018-03-22T12:32:26.068Z,9.30
2018-03-22T12:33:26.138Z,9.60
2018-03-22T12:34:26.093Z,9.50
2018-03-22T12:35:26.151Z,7.70
2018-03-22T12:36:26.110Z,10.40
2018-03-22T12:37:26.125Z,10.50
2018-03-22T12:38:26.152Z,10.50
2018-03-22T12:39:26.155Z,11.90
2018-03-22T12:40:26.219Z,11.20
2018-03-22T12:41:26.179Z,10.80
2018-03-22T12:42:26.203Z,10.70
2018-03-22T12:43:26.285Z,11.40
2018-03-22T12:44:26.220Z,12.10
2018-03-22T12:45:26.750Z,11.40
2018-03-22T12:46:26.244Z,13.20
2018-03-22T12:47:26.259Z,12.40
2018-03-22T12:48:26.275Z,12.10
2018-03-22T12:49:26.282Z,12.80
2018-03-22T12:50:26.298Z,11.90
2018-03-22T12:51:26.352Z,11.70
2018-03-22T12:52:26.320Z,12.50
2018-03-22T12:53:26.336Z,12.90
2018-03-22T12:54:26.348Z,12.60